Time;durP1;ratioP1;P1;durP2;ratioP2;P2;SDS_P1;SDS_P2;PMS_P1;PMS_P2;Temp;Humidity;BMP_temperature;BMP_pressure;BME280_temperature;BME280_humidity;BME280_pressure;Samples;Min_cycle;Max_cycle;Signal;HPM_P1;HPM_P2
2022/09/09 00:01:57;;;;;;;1.80;1.20;;;;;;;14.54;74.84;97945.09;7389420;19;20019;-72
2022/09/09 00:04:31;;;;;;;2.33;1.35;;;;;;;14.66;74.82;97952.34;7392016;19;20015;-72
2022/09/09 00:07:10;;;;;;;5.18;1.48;;;;;;;14.81;74.01;97946.13;7389383;19;20029;-72
2022/09/09 00:10:03;;;;;;;4.18;1.20;;;;;;;14.80;74.14;97953.28;7388938;19;20366;-73
2022/09/09 00:12:48;;;;;;;8.27;1.50;;;;;;;14.78;73.11;97939.34;7389014;19;20022;-73
2022/09/09 00:15:26;;;;;;;3.78;1.35;;;;;;;14.71;73.87;97946.44;7391856;19;20021;-72
2022/09/09 00:17:57;;;;;;;3.05;1.52;;;;;;;14.63;73.93;97938.59;7384529;19;20387;-71
2022/09/09 00:20:26;;;;;;;4.75;1.50;;;;;;;14.53;74.64;97941.59;7387231;19;20506;-73
2022/09/09 00:23:12;;;;;;;3.80;1.30;;;;;;;14.44;75.16;97930.22;7386913;19;20015;-72
2022/09/09 00:25:53;;;;;;;3.75;1.73;;;;;;;14.34;74.58;97939.53;7383236;19;20023;-72
2022/09/09 00:28:23;;;;;;;3.38;1.13;;;;;;;14.28;74.70;97933.97;7383360;19;20015;-72
2022/09/09 00:30:50;;;;;;;6.75;1.92;;;;;;;14.27;74.50;97934.19;7386009;19;20022;-72
2022/09/09 00:33:22;;;;;;;2.95;1.20;;;;;;;14.33;74.51;97929.94;7384668;19;20019;-71
2022/09/09 00:35:52;;;;;;;2.72;1.52;;;;;;;14.23;74.45;97930.22;7388121;19;20148;-71
2022/09/09 00:38:58;;;;;;;4.93;1.48;;;;;;;14.33;74.82;97933.41;7383834;19;20010;-70
2022/09/09 00:41:52;;;;;;;3.47;1.10;;;;;;;14.35;74.46;97934.03;7384033;19;20053;-71
2022/09/09 00:44:35;;;;;;;3.38;1.20;;;;;;;14.54;73.78;97932.59;7382778;19;20007;-72
2022/09/09 00:47:30;;;;;;;6.78;2.03;;;;;;;14.64;73.59;97924.25;7384043;19;20018;-72
2022/09/09 00:50:14;;;;;;;5.57;1.33;;;;;;;14.79;72.86;97930.31;7387382;19;20015;-71
2022/09/09 00:53:05;;;;;;;1.95;1.00;;;;;;;14.86;73.00;97928.53;7388612;19;20029;-72
2022/09/09 00:55:48;;;;;;;3.28;1.20;;;;;;;14.97;72.92;97926.38;7387716;19;20011;-73
2022/09/09 00:58:15;;;;;;;5.60;1.25;;;;;;;15.01;73.21;97923.13;7383469;19;20559;-72
2022/09/09 01:00:57;;;;;;;1.55;0.98;;;;;;;15.14;73.07;97941.03;7386177;19;20369;-73
2022/09/09 01:03:33;;;;;;;3.13;1.20;;;;;;;15.25;72.77;97940.50;7384781;19;20765;-72
2022/09/09 01:06:13;;;;;;;5.18;1.48;;;;;;;15.34;72.07;97939.28;7386798;19;20015;-72
2022/09/09 01:09:01;;;;;;;4.32;1.38;;;;;;;15.35;70.74;97938.28;7379672;19;20377;-72
2022/09/09 01:11:46;;;;;;;4.00;1.00;;;;;;;15.33;70.55;97943.00;7384413;19;20018;-72
2022/09/09 01:14:20;;;;;;;3.75;1.38;;;;;;;15.34;70.62;97944.63;7384907;19;20082;-71
2022/09/09 01:16:48;;;;;;;3.47;1.42;;;;;;;15.32;70.60;97946.69;7384167;19;20035;-72
2022/09/09 01:19:27;;;;;;;4.32;1.45;;;;;;;15.24;70.79;97938.00;7385160;19;20015;-72
2022/09/09 01:22:03;;;;;;;3.72;1.83;;;;;;;15.10;70.40;97931.78;7384014;19;20015;-72
2022/09/09 01:24:38;;;;;;;3.67;1.25;;;;;;;14.98;71.46;97936.00;7385307;19;20018;-71
2022/09/09 01:27:15;;;;;;;3.83;1.10;;;;;;;15.02;72.52;97932.75;7383435;19;20057;-71
2022/09/09 01:29:41;;;;;;;5.07;1.10;;;;;;;15.03;73.28;97925.56;7385922;19;20035;-71
2022/09/09 01:32:39;;;;;;;5.30;1.75;;;;;;;15.01;73.67;97928.47;7380917;19;20022;-71
2022/09/09 01:35:14;;;;;;;3.53;1.75;;;;;;;15.07;73.60;97941.00;7385437;19;20006;-72
2022/09/09 01:37:41;;;;;;;4.82;1.30;;;;;;;15.13;71.89;97953.53;7382666;19;20014;-72
2022/09/09 01:40:08;;;;;;;4.30;1.30;;;;;;;15.06;71.21;97957.16;7384209;19;20048;-72
2022/09/09 01:42:36;;;;;;;4.68;1.30;;;;;;;15.01;71.29;97948.91;7383576;19;20019;-72
2022/09/09 01:45:04;;;;;;;3.20;1.30;;;;;;;15.01;72.09;97956.91;7382900;19;20015;-72
2022/09/09 01:47:31;;;;;;;4.78;1.30;;;;;;;15.02;71.30;97951.41;7387755;19;20038;-72
2022/09/09 01:50:11;;;;;;;2.65;1.10;;;;;;;15.11;72.21;97952.91;7392420;19;20026;-71
2022/09/09 01:52:38;;;;;;;5.50;1.67;;;;;;;15.19;71.93;97951.91;7388993;19;21400;-72
2022/09/09 01:55:09;;;;;;;2.50;1.25;;;;;;;15.23;72.05;97950.50;7390310;19;20006;-72
2022/09/09 01:57:56;;;;;;;2.85;1.70;;;;;;;15.29;72.39;97944.38;7390267;19;20426;-72
2022/09/09 02:00:23;;;;;;;6.03;2.95;;;;;;;15.35;72.25;97943.63;7390494;19;20035;-72
2022/09/09 02:03:06;;;;;;;7.03;3.38;;;;;;;15.35;71.39;97940.97;7389717;19;20020;-72
2022/09/09 02:06:04;;;;;;;7.22;3.03;;;;;;;15.32;70.68;97946.69;7388857;19;20022;-72
2022/09/09 02:08:39;;;;;;;5.35;2.75;;;;;;;15.25;71.22;97942.34;7386987;19;20114;-72
2022/09/09 02:11:14;;;;;;;4.93;2.03;;;;;;;15.24;71.43;97943.34;7389478;19;20014;-72
2022/09/09 02:14:05;;;;;;;2.60;1.48;;;;;;;15.18;71.34;97936.94;7392309;19;20085;-72
2022/09/09 02:16:40;;;;;;;4.13;1.70;;;;;;;15.05;71.58;97924.38;7388837;19;20486;-72
2022/09/09 02:19:14;;;;;;;8.07;3.10;;;;;;;14.79;71.99;97925.00;7389717;19;20679;-72
2022/09/09 02:21:56;;;;;;;6.55;3.20;;;;;;;14.57;72.80;97939.38;7388581;19;20014;-72
2022/09/09 02:24:23;;;;;;;3.90;1.55;;;;;;;14.40;73.07;97942.28;7390499;19;20027;-72
2022/09/09 02:27:02;;;;;;;3.72;1.55;;;;;;;14.38;73.73;97954.94;7389127;19;20045;-72
2022/09/09 02:29:38;;;;;;;6.10;1.52;;;;;;;14.39;74.04;97955.78;7387554;19;20021;-72
2022/09/09 02:32:09;;;;;;;1.80;0.95;;;;;;;14.33;73.67;97952.03;7389756;19;20014;-72
2022/09/09 02:34:41;;;;;;;6.80;1.10;;;;;;;14.13;73.48;97949.16;7391482;19;20022;-72
2022/09/09 02:37:09;;;;;;;2.45;1.27;;;;;;;14.12;73.73;97947.53;7390875;19;20022;-72
2022/09/09 02:39:37;;;;;;;3.70;1.13;;;;;;;14.07;75.19;97941.94;7389744;19;20541;-72
2022/09/09 02:42:08;;;;;;;1.80;0.88;;;;;;;14.13;74.98;97945.69;7388792;19;20011;-72
2022/09/09 02:44:36;;;;;;;2.72;0.93;;;;;;;14.14;74.66;97957.97;7386413;19;20508;-72
2022/09/09 02:47:34;;;;;;;5.13;1.52;;;;;;;14.09;74.82;97958.53;7385625;19;20019;-72
2022/09/09 02:50:17;;;;;;;5.00;1.00;;;;;;;14.09;74.87;97950.56;7375916;19;20797;-72
2022/09/09 02:52:58;;;;;;;1.70;1.10;;;;;;;14.01;74.54;97953.34;7377565;19;20014;-72
2022/09/09 02:55:38;;;;;;;5.97;1.30;;;;;;;13.88;74.73;97959.34;7380178;19;20014;-72
2022/09/09 02:58:11;;;;;;;1.48;0.75;;;;;;;13.99;74.63;97944.72;7377254;19;20441;-72
2022/09/09 03:00:39;;;;;;;3.25;1.10;;;;;;;13.98;74.20;97940.41;7379782;19;20023;-72
2022/09/09 03:03:08;;;;;;;4.13;1.35;;;;;;;13.87;74.75;97941.72;7387108;19;20018;-72
2022/09/09 03:05:36;;;;;;;4.00;2.08;;;;;;;13.83;75.31;97945.78;7389224;19;20026;-72
2022/09/09 03:08:05;;;;;;;6.20;2.20;;;;;;;13.89;75.11;97937.03;7385566;19;20026;-71
2022/09/09 03:10:32;;;;;;;6.68;2.60;;;;;;;13.90;74.90;97932.53;7389059;19;20026;-71
2022/09/09 03:12:59;;;;;;;7.20;2.10;;;;;;;13.90;75.46;97935.19;7386857;19;20029;-72
2022/09/09 03:15:30;;;;;;;5.85;2.67;;;;;;;13.84;75.87;97923.47;7389985;19;20868;-72
2022/09/09 03:17:58;;;;;;;5.47;2.55;;;;;;;13.88;76.81;97919.44;7383674;19;20465;-73
2022/09/09 03:20:26;;;;;;;4.43;2.40;;;;;;;13.90;76.06;97914.78;7389931;19;20015;-72
2022/09/09 03:22:54;;;;;;;6.50;2.75;;;;;;;13.98;76.46;97927.09;7386146;19;20022;-72
2022/09/09 03:25:23;;;;;;;7.57;1.30;;;;;;;14.03;76.61;97924.69;7387299;19;20026;-72
2022/09/09 03:27:54;;;;;;;4.78;1.23;;;;;;;14.02;76.15;97923.06;7385101;19;20086;-72
2022/09/09 03:30:22;;;;;;;4.55;1.42;;;;;;;14.02;75.94;97931.84;7387968;19;20556;-72
2022/09/09 03:32:49;;;;;;;6.85;1.38;;;;;;;14.11;75.51;97939.72;7385656;19;20033;-72
2022/09/09 03:35:16;;;;;;;4.43;2.20;;;;;;;14.04;75.54;97940.47;7391281;19;20015;-72
2022/09/09 03:37:43;;;;;;;5.03;1.60;;;;;;;14.07;75.44;97939.28;7389666;19;20018;-72
2022/09/09 03:40:12;;;;;;;8.23;1.92;;;;;;;14.08;75.84;97932.13;7387348;19;20042;-72
2022/09/09 03:42:41;;;;;;;2.75;1.23;;;;;;;14.07;75.75;97930.47;7386244;19;20022;-73
2022/09/09 03:45:10;;;;;;;4.10;1.38;;;;;;;14.05;75.64;97926.16;7388060;19;20035;-72
2022/09/09 03:47:39;;;;;;;2.38;1.20;;;;;;;14.08;75.49;97932.94;7385846;19;20014;-72
2022/09/09 03:50:08;;;;;;;3.67;1.83;;;;;;;14.00;75.64;97933.06;7388925;19;20022;-72
2022/09/09 03:52:38;;;;;;;5.60;1.50;;;;;;;13.92;75.48;97938.50;7388377;19;20021;-72
2022/09/09 03:55:08;;;;;;;5.07;2.15;;;;;;;13.89;75.67;97945.00;7386833;19;20115;-72
2022/09/09 03:57:37;;;;;;;2.70;1.63;;;;;;;13.93;76.27;97940.97;7385789;19;20025;-72
2022/09/09 04:00:08;;;;;;;2.20;1.17;;;;;;;13.87;75.58;97946.22;7387700;19;20021;-72
2022/09/09 04:02:47;;;;;;;4.35;2.15;;;;;;;13.76;75.74;97944.88;7385621;19;20026;-72
2022/09/09 04:05:15;;;;;;;4.45;1.13;;;;;;;13.75;75.40;97948.53;7388968;19;20029;-72
2022/09/09 04:07:44;;;;;;;10.23;1.15;;;;;;;13.82;75.71;97942.28;7385735;19;20022;-71
2022/09/09 04:10:11;;;;;;;4.97;2.65;;;;;;;13.99;75.48;97950.03;7386134;19;20571;-72
2022/09/09 04:12:39;;;;;;;4.30;2.20;;;;;;;14.08;75.83;97948.06;7387473;19;21366;-72
2022/09/09 04:15:06;;;;;;;1.50;1.20;;;;;;;14.27;74.89;97950.13;7387518;19;20025;-72
2022/09/09 04:17:36;;;;;;;2.05;1.35;;;;;;;14.25;73.62;97946.84;7385451;19;20022;-72
2022/09/09 04:20:03;;;;;;;5.65;1.27;;;;;;;14.36;73.89;97946.31;7388143;19;20024;-71
2022/09/09 04:22:31;;;;;;;4.65;1.23;;;;;;;14.39;73.15;97940.63;7385891;19;20010;-72
2022/09/09 04:24:58;;;;;;;6.78;1.05;;;;;;;14.37;73.36;97941.81;7386600;19;20039;-72
2022/09/09 04:27:26;;;;;;;8.65;1.23;;;;;;;14.43;74.02;97947.22;7386092;19;20042;-71
2022/09/09 04:29:53;;;;;;;3.33;1.23;;;;;;;14.52;73.98;97945.25;7383515;19;20029;-72
2022/09/09 04:32:21;;;;;;;1.65;0.98;;;;;;;14.66;74.14;97952.34;7383607;19;20014;-72
2022/09/09 04:34:47;;;;;;;3.40;1.40;;;;;;;14.77;72.92;97955.50;7386114;19;20089;-71
2022/09/09 04:37:14;;;;;;;5.18;1.27;;;;;;;14.60;71.94;97954.97;7386878;19;20022;-72
2022/09/09 04:39:42;;;;;;;4.38;1.08;;;;;;;14.40;72.25;97955.59;7386212;19;20019;-71
2022/09/09 04:42:08;;;;;;;5.10;1.50;;;;;;;14.30;73.15;97952.41;7386259;19;20025;-72
2022/09/09 04:44:35;;;;;;;4.97;1.25;;;;;;;14.33;73.22;97949.38;7389693;19;20054;-71
2022/09/09 04:47:02;;;;;;;2.65;1.50;;;;;;;14.34;73.15;97948.34;7385211;19;20038;-71
2022/09/09 04:49:30;;;;;;;5.50;1.40;;;;;;;14.32;73.21;97954.88;7384290;19;20308;-72
2022/09/09 04:51:57;;;;;;;4.28;1.30;;;;;;;14.49;74.31;97950.94;7381355;19;20790;-73
2022/09/09 04:54:25;;;;;;;4.82;1.50;;;;;;;14.72;73.65;97950.78;7384063;19;21088;-72
2022/09/09 04:56:52;;;;;;;5.88;1.48;;;;;;;14.88;72.95;97950.50;7383666;19;20029;-72
2022/09/09 04:59:18;;;;;;;3.90;1.42;;;;;;;14.97;71.81;97951.16;7384591;19;20018;-72
2022/09/09 05:01:50;;;;;;;2.85;1.20;;;;;;;14.86;71.21;97960.50;7378691;19;20011;-72
2022/09/09 05:04:17;;;;;;;5.20;1.42;;;;;;;14.77;71.67;97968.81;7382148;19;20018;-72
2022/09/09 05:06:43;;;;;;;3.42;1.10;;;;;;;14.63;71.60;97962.56;7386320;19;20010;-72
2022/09/09 05:09:11;;;;;;;6.85;1.20;;;;;;;14.55;72.16;97968.03;7385178;19;20500;-71
2022/09/09 05:11:38;;;;;;;3.20;1.08;;;;;;;14.57;72.62;97960.69;7384386;19;20035;-72
2022/09/09 05:14:22;;;;;;;4.95;1.20;;;;;;;14.59;72.56;97971.97;7382865;19;20018;-71
2022/09/09 05:16:49;;;;;;;6.20;1.10;;;;;;;14.66;72.66;97968.31;7385239;19;20031;-71
2022/09/09 05:19:18;;;;;;;3.20;1.02;;;;;;;14.64;72.83;97985.50;7383485;19;20074;-71
2022/09/09 05:21:47;;;;;;;6.57;1.40;;;;;;;14.76;72.14;97978.66;7390546;19;20038;-71
2022/09/09 05:24:17;;;;;;;2.53;1.38;;;;;;;14.81;71.28;97984.22;7393141;19;20022;-71
2022/09/09 05:26:45;;;;;;;2.70;1.20;;;;;;;14.92;71.25;97981.03;7386283;19;20535;-71
2022/09/09 05:29:12;;;;;;;4.63;1.20;;;;;;;15.11;70.91;97981.38;7390902;19;20450;-71
2022/09/09 05:31:39;;;;;;;4.40;1.33;;;;;;;15.23;70.49;97990.50;7385825;19;20657;-71
2022/09/09 05:34:10;;;;;;;3.75;1.42;;;;;;;15.27;70.26;97989.09;7389751;19;20019;-71
2022/09/09 05:36:37;;;;;;;7.50;1.60;;;;;;;15.34;70.37;97986.44;7388875;19;20018;-71
2022/09/09 05:39:03;;;;;;;3.05;1.02;;;;;;;15.43;70.27;97981.78;7389064;19;20011;-71
2022/09/09 05:41:32;;;;;;;2.33;0.88;;;;;;;15.50;69.47;97985.31;7382190;19;20018;-71
2022/09/09 05:44:01;;;;;;;6.88;1.80;;;;;;;15.51;69.32;97992.31;7388726;19;20022;-71
2022/09/09 05:46:30;;;;;;;4.30;1.25;;;;;;;15.56;69.55;97984.50;7387318;19;20597;-71
2022/09/09 05:48:58;;;;;;;7.25;1.83;;;;;;;15.68;69.68;97985.63;7387020;19;20025;-72
2022/09/09 05:51:32;;;;;;;5.47;1.27;;;;;;;15.78;69.95;97987.97;7388967;19;20025;-71
2022/09/09 05:54:04;;;;;;;5.13;1.50;;;;;;;15.94;69.94;97992.13;7386891;19;20019;-71
2022/09/09 05:56:34;;;;;;;3.78;1.20;;;;;;;16.06;69.54;97992.38;7389011;19;20028;-72
2022/09/09 05:59:01;;;;;;;3.78;1.50;;;;;;;16.22;68.24;97997.38;7392269;19;20025;-71
2022/09/09 06:01:30;;;;;;;4.00;1.30;;;;;;;16.29;68.86;97995.50;7393555;19;20030;-71
2022/09/09 06:03:58;;;;;;;3.17;1.40;;;;;;;16.29;68.40;97990.19;7388378;19;20010;-71
2022/09/09 06:06:26;;;;;;;2.15;1.00;;;;;;;16.38;68.63;97991.66;7392815;19;20368;-71
2022/09/09 06:08:59;;;;;;;2.63;1.42;;;;;;;16.66;68.44;97991.47;7390906;19;20048;-72
2022/09/09 06:11:33;;;;;;;3.53;1.83;;;;;;;16.82;67.79;98000.97;7391152;19;20022;-71
2022/09/09 06:14:00;;;;;;;2.80;1.30;;;;;;;16.81;67.67;97998.53;7389647;19;20014;-71
2022/09/09 06:16:32;;;;;;;5.05;1.30;;;;;;;16.86;67.24;98001.41;7391954;19;20022;-71
2022/09/09 06:18:59;;;;;;;4.13;1.55;;;;;;;17.07;66.80;97987.81;7391262;19;20019;-71
2022/09/09 06:21:36;;;;;;;3.80;1.67;;;;;;;17.29;66.42;97996.44;7390127;19;20797;-71
2022/09/09 06:24:07;;;;;;;6.97;2.15;;;;;;;17.41;65.96;97993.97;7392278;19;20029;-71
2022/09/09 06:26:36;;;;;;;4.15;1.73;;;;;;;17.45;65.45;97991.66;7389740;19;20014;-71
2022/09/09 06:29:04;;;;;;;3.88;1.65;;;;;;;17.43;65.13;97991.06;7391966;19;20044;-71
2022/09/09 06:31:33;;;;;;;5.47;1.70;;;;;;;17.47;65.10;97990.44;7387751;19;20043;-71
2022/09/09 06:34:08;;;;;;;5.07;1.40;;;;;;;17.44;65.26;98003.41;7389948;19;20022;-71
2022/09/09 06:36:39;;;;;;;4.95;1.30;;;;;;;17.52;64.41;98005.84;7390586;19;20023;-71
2022/09/09 06:39:07;;;;;;;5.50;1.75;;;;;;;17.49;65.31;97998.25;7391936;19;20043;-71
2022/09/09 06:41:40;;;;;;;4.68;1.42;;;;;;;17.57;65.14;97997.22;7388968;19;20018;-71
2022/09/09 06:44:13;;;;;;;4.55;1.00;;;;;;;17.62;65.30;98000.91;7391095;19;20015;-71
2022/09/09 06:46:41;;;;;;;4.53;1.33;;;;;;;17.71;64.52;98004.97;7389366;19;20018;-72
2022/09/09 06:49:09;;;;;;;7.47;1.50;;;;;;;17.86;64.90;98002.09;7390049;19;20029;-72
2022/09/09 06:51:43;;;;;;;5.78;1.15;;;;;;;17.97;63.49;98005.97;7388559;19;20890;-72
2022/09/09 06:54:12;;;;;;;2.60;1.10;;;;;;;17.93;63.88;98002.06;7388403;19;20900;-71
2022/09/09 06:56:43;;;;;;;5.72;1.65;;;;;;;18.06;63.50;98002.03;7388991;19;20006;-71
2022/09/09 06:59:20;;;;;;;4.47;1.70;;;;;;;18.14;63.49;98022.34;7389551;19;20014;-72
2022/09/09 07:01:47;;;;;;;6.43;1.50;;;;;;;18.25;62.54;98016.34;7389752;19;20019;-71
2022/09/09 07:04:21;;;;;;;6.72;1.30;;;;;;;18.37;63.24;98006.56;7390589;19;20021;-71
2022/09/09 07:06:48;;;;;;;4.28;1.50;;;;;;;18.38;62.94;98010.91;7390001;19;20021;-72
2022/09/09 07:09:21;;;;;;;2.05;1.10;;;;;;;18.38;63.33;98010.09;7387614;19;20014;-72
2022/09/09 07:11:53;;;;;;;7.95;1.70;;;;;;;18.52;62.37;98005.47;7388781;19;20643;-71
2022/09/09 07:14:22;;;;;;;6.60;1.27;;;;;;;18.56;62.61;98006.69;7387990;19;20034;-72
2022/09/09 07:16:57;;;;;;;3.75;1.30;;;;;;;18.60;61.85;97992.63;7389280;19;20030;-71
2022/09/09 07:19:26;;;;;;;4.03;1.20;;;;;;;18.70;61.96;98002.06;7388063;19;20541;-71
2022/09/09 07:21:54;;;;;;;6.32;1.20;;;;;;;18.95;60.51;98002.91;7387436;19;20029;-71
2022/09/09 07:24:23;;;;;;;5.78;1.10;;;;;;;19.04;60.66;98008.84;7391313;19;20036;-71
2022/09/09 07:26:51;;;;;;;6.25;1.48;;;;;;;19.02;61.50;98009.06;7388301;19;20037;-71
2022/09/09 07:29:19;;;;;;;3.10;1.35;;;;;;;19.21;60.80;97996.50;7388780;19;20639;-71
2022/09/09 07:31:48;;;;;;;5.78;1.52;;;;;;;19.43;59.53;97998.78;7383588;19;20078;-71
2022/09/09 07:34:19;;;;;;;6.43;1.40;;;;;;;19.53;59.17;98002.59;7387241;19;20010;-71
2022/09/09 07:36:48;;;;;;;8.68;1.33;;;;;;;19.66;59.53;97998.13;7387309;19;20018;-72
2022/09/09 07:39:17;;;;;;;1.58;0.88;;;;;;;19.66;58.52;97996.28;7387803;19;20019;-71
2022/09/09 07:41:49;;;;;;;4.72;0.80;;;;;;;19.82;60.37;97999.44;7386882;19;20025;-72
2022/09/09 07:44:21;;;;;;;2.35;1.00;;;;;;;19.81;58.83;98003.19;7389532;19;20006;-71
2022/09/09 07:46:51;;;;;;;4.47;1.33;;;;;;;19.77;58.49;98008.16;7387330;19;20019;-71
2022/09/09 07:49:24;;;;;;;7.57;2.00;;;;;;;19.85;58.28;98002.50;7386367;19;20090;-71
2022/09/09 07:51:58;;;;;;;3.03;1.13;;;;;;;19.95;57.28;98000.09;7380798;19;20022;-72
2022/09/09 07:54:26;;;;;;;2.45;0.90;;;;;;;20.12;55.85;98004.88;7383874;19;20739;-72
2022/09/09 07:56:53;;;;;;;3.50;1.17;;;;;;;20.04;58.43;98008.69;7384113;19;20023;-71
2022/09/09 07:59:24;;;;;;;3.50;1.15;;;;;;;20.20;57.00;98011.81;7385931;19;20022;-72
2022/09/09 08:01:54;;;;;;;8.00;1.08;;;;;;;20.15;56.90;98015.97;7383073;19;20066;-73
2022/09/09 08:04:25;;;;;;;5.18;1.13;;;;;;;19.90;58.60;98020.59;7385692;19;20028;-71
2022/09/09 08:06:55;;;;;;;5.57;1.30;;;;;;;19.56;58.87;98022.78;7383753;19;20022;-72
2022/09/09 08:09:26;;;;;;;2.00;1.05;;;;;;;19.50;59.62;98012.97;7383746;19;20481;-72
2022/09/09 08:12:00;;;;;;;6.28;1.35;;;;;;;19.50;59.50;98008.41;7378972;19;20018;-71
2022/09/09 08:14:29;;;;;;;4.63;1.13;;;;;;;20.01;58.08;98008.28;7382599;19;20014;-71
2022/09/09 08:16:57;;;;;;;2.55;1.02;;;;;;;20.21;57.71;98014.25;7383298;19;20029;-71
2022/09/09 08:19:29;;;;;;;4.88;1.27;;;;;;;20.50;58.28;98022.53;7382860;19;20039;-72
2022/09/09 08:21:57;;;;;;;5.18;1.50;;;;;;;20.92;55.05;98020.69;7379140;19;20027;-73
2022/09/09 08:24:24;;;;;;;4.25;1.20;;;;;;;21.11;55.31;98020.63;7383397;19;20018;-71
2022/09/09 08:26:51;;;;;;;4.38;0.93;;;;;;;21.38;54.22;98011.09;7381431;19;20022;-71
2022/09/09 08:29:21;;;;;;;5.95;0.93;;;;;;;21.16;52.66;98013.47;7380495;19;20105;-73
2022/09/09 08:31:57;;;;;;;8.40;1.75;;;;;;;21.14;55.54;98022.84;7381350;19;20015;-72
2022/09/09 08:34:26;;;;;;;3.83;1.30;;;;;;;21.05;55.26;98025.88;7380977;19;20583;-72
2022/09/09 08:36:55;;;;;;;4.63;1.27;;;;;;;20.89;54.31;98031.09;7382922;19;20492;-73
2022/09/09 08:39:28;;;;;;;4.25;1.33;;;;;;;20.86;54.76;98035.06;7379874;19;20014;-73
2022/09/09 08:42:28;;;;;;;3.88;1.30;;;;;;;20.88;54.70;98029.44;7379497;19;20018;-74
2022/09/09 08:45:02;;;;;;;3.10;0.98;;;;;;;21.14;54.42;98031.72;7383615;19;20364;-73
2022/09/09 08:47:33;;;;;;;2.95;1.35;;;;;;;21.44;54.01;98017.41;7381565;19;20015;-73
2022/09/09 08:50:33;;;;;;;4.53;1.35;;;;;;;21.73;52.31;98018.31;7381443;19;20049;-76
2022/09/09 08:53:07;;;;;;;6.15;1.20;;;;;;;22.35;51.94;98017.69;7379780;19;20018;-73
2022/09/09 08:55:38;;;;;;;7.85;1.60;;;;;;;22.50;51.04;98012.59;7381104;19;20104;-73
2022/09/09 08:58:15;;;;;;;3.10;1.30;;;;;;;23.07;48.82;98014.44;7383314;19;20011;-74
2022/09/09 09:01:03;;;;;;;4.10;0.73;;;;;;;23.40;47.57;98004.66;7384354;19;20010;-74
2022/09/09 09:03:58;;;;;;;5.75;1.15;;;;;;;24.00;48.53;98009.28;7379700;19;20052;-73
2022/09/09 09:06:35;;;;;;;3.97;1.30;;;;;;;23.83;48.03;98005.84;7380928;19;20077;-74
2022/09/09 09:09:13;;;;;;;4.68;1.13;;;;;;;23.31;47.42;98003.47;7384781;19;20057;-74
2022/09/09 09:11:47;;;;;;;3.13;1.10;;;;;;;22.83;49.23;98004.78;7383463;19;20018;-73
2022/09/09 09:14:21;;;;;;;2.45;0.77;;;;;;;22.81;50.38;97998.84;7384263;19;20411;-74
2022/09/09 09:16:56;;;;;;;2.75;1.00;;;;;;;23.07;50.20;98008.22;7383406;19;20019;-74
2022/09/09 09:19:26;;;;;;;7.28;1.05;;;;;;;23.09;49.84;98004.22;7383633;19;20015;-73
2022/09/09 09:21:58;;;;;;;7.53;1.23;;;;;;;23.46;46.88;97992.91;7380830;19;20019;-74
2022/09/09 09:24:54;;;;;;;2.53;0.70;;;;;;;23.59;44.78;97983.59;7375196;19;20893;-74
2022/09/09 09:27:32;;;;;;;6.20;0.70;;;;;;;23.60;45.09;97990.66;7377045;19;20018;-73
2022/09/09 09:30:02;;;;;;;6.07;0.90;;;;;;;23.58;45.71;97984.66;7385171;19;20011;-73
2022/09/09 09:32:56;;;;;;;4.53;1.05;;;;;;;23.28;44.86;97993.16;7383574;19;20462;-73
2022/09/09 09:35:24;;;;;;;2.47;0.73;;;;;;;22.25;44.50;97995.94;7384648;19;20018;-73
2022/09/09 09:37:51;;;;;;;3.83;0.70;;;;;;;21.72;48.64;98000.50;7380542;19;20015;-74
2022/09/09 09:40:48;;;;;;;2.55;0.80;;;;;;;21.16;47.51;98004.59;7378684;19;20011;-74
2022/09/09 09:43:20;;;;;;;5.07;1.10;;;;;;;20.83;50.20;98005.97;7376393;19;20018;-73
2022/09/09 09:45:48;;;;;;;5.00;0.90;;;;;;;20.76;49.98;98005.25;7379065;19;20014;-72
2022/09/09 09:48:34;;;;;;;4.93;0.88;;;;;;;20.61;48.53;97993.03;7383025;19;20014;-73
2022/09/09 09:51:10;;;;;;;3.13;0.80;;;;;;;20.49;49.15;97992.16;7379223;19;20024;-73
2022/09/09 09:53:38;;;;;;;3.80;0.80;;;;;;;20.29;51.80;97992.44;7378249;19;20014;-73
2022/09/09 09:56:08;;;;;;;4.10;0.55;;;;;;;19.88;49.57;97993.16;7382887;19;20014;-73
2022/09/09 09:58:49;;;;;;;2.58;0.60;;;;;;;20.01;50.43;97979.59;7381778;19;20025;-72
2022/09/09 10:01:31;;;;;;;1.67;0.57;;;;;;;20.36;49.75;97981.59;7382277;19;20017;-73
2022/09/09 10:04:01;;;;;;;3.47;0.47;;;;;;;20.51;48.91;97976.66;7374568;19;20010;-72
2022/09/09 10:06:34;;;;;;;2.47;0.45;;;;;;;20.44;48.13;97981.28;7381487;19;20042;-73
2022/09/09 10:09:04;;;;;;;2.37;0.50;;;;;;;20.47;47.14;97978.13;7390026;19;20018;-73
2022/09/09 10:11:33;;;;;;;0.93;0.50;;;;;;;20.61;48.94;97976.09;7386026;19;20077;-72
2022/09/09 10:14:22;;;;;;;2.40;0.52;;;;;;;20.71;49.78;97972.84;7392358;19;20374;-73
2022/09/09 10:17:02;;;;;;;3.42;0.60;;;;;;;20.76;47.63;97975.66;7389106;19;20011;-74
2022/09/09 10:19:35;;;;;;;1.60;0.68;;;;;;;21.02;45.54;97971.72;7388470;19;20018;-73
2022/09/09 10:22:27;;;;;;;1.83;0.65;;;;;;;21.10;45.35;97962.50;7390346;19;20018;-72
2022/09/09 10:25:09;;;;;;;4.88;0.63;;;;;;;21.07;46.24;97963.78;7389596;19;20038;-74
2022/09/09 10:27:51;;;;;;;2.72;0.75;;;;;;;21.23;47.03;97967.66;7389101;19;20035;-74
2022/09/09 10:30:34;;;;;;;2.03;0.50;;;;;;;21.20;49.01;97962.75;7387862;19;20022;-73
2022/09/09 10:33:05;;;;;;;3.28;0.70;;;;;;;21.61;48.35;97966.34;7383155;19;20021;-73
2022/09/09 10:35:47;;;;;;;3.45;0.80;;;;;;;21.76;45.93;97972.06;7388022;19;20023;-72
2022/09/09 10:38:30;;;;;;;4.85;1.13;;;;;;;21.56;46.00;97967.03;7389413;19;20043;-73
2022/09/09 10:40:57;;;;;;;2.45;0.52;;;;;;;21.45;47.79;97967.88;7388028;19;20021;-73
2022/09/09 10:43:46;;;;;;;2.55;0.70;;;;;;;21.47;49.19;97969.28;7383813;19;20026;-73
2022/09/09 10:46:51;;;;;;;2.08;0.80;;;;;;;22.02;48.47;97964.50;7386073;19;20615;-74
2022/09/09 10:49:40;;;;;;;2.67;0.82;;;;;;;22.75;45.09;97961.00;7390108;19;20018;-73
2022/09/09 10:52:10;;;;;;;2.42;0.90;;;;;;;22.77;46.15;97961.56;7387872;19;20077;-72
2022/09/09 10:54:57;;;;;;;4.00;1.00;;;;;;;22.56;47.12;97960.44;7386789;19;20115;-72
2022/09/09 10:57:31;;;;;;;5.47;0.80;;;;;;;22.87;48.03;97954.72;7387206;19;20021;-73
2022/09/09 11:00:05;;;;;;;2.30;0.77;;;;;;;23.45;46.81;97951.56;7389837;19;20021;-72
2022/09/09 11:02:34;;;;;;;2.15;0.77;;;;;;;23.63;43.75;97958.56;7386127;19;20376;-72
2022/09/09 11:05:18;;;;;;;5.40;0.88;;;;;;;22.98;44.61;97960.03;7388661;19;20501;-73
2022/09/09 11:08:23;;;;;;;5.53;0.90;;;;;;;23.07;44.79;97957.75;7380781;19;20100;-72
2022/09/09 11:11:00;;;;;;;4.43;1.17;;;;;;;23.79;43.56;97945.28;7381952;19;20018;-73
2022/09/09 11:13:34;;;;;;;2.80;0.93;;;;;;;24.05;44.38;97951.78;7383953;19;20043;-73
2022/09/09 11:16:43;;;;;;;3.50;1.20;;;;;;;23.81;44.12;97948.53;7389509;19;20014;-73
2022/09/09 11:19:26;;;;;;;6.53;1.38;;;;;;;23.31;45.74;97944.91;7386588;19;20498;-72
2022/09/09 11:21:54;;;;;;;4.03;1.00;;;;;;;22.84;47.29;97945.22;7391049;19;20006;-73
2022/09/09 11:24:42;;;;;;;3.20;0.60;;;;;;;23.03;47.28;97959.31;7390640;19;20022;-74
2022/09/09 11:27:15;;;;;;;3.42;0.80;;;;;;;23.03;46.51;97970.09;7387047;19;20022;-73
2022/09/09 11:30:03;;;;;;;3.50;0.98;;;;;;;21.80;47.66;97993.94;7390328;19;20038;-73
2022/09/09 11:32:45;;;;;;;5.13;1.38;;;;;;;19.84;60.32;98024.19;7390115;19;20029;-73
2022/09/09 11:35:49;;;;;;;23.00;3.00;;;;;;;17.93;73.74;98040.38;7390391;19;20022;-73
2022/09/09 11:38:22;;;;;;;22.90;3.08;;;;;;;16.71;80.74;98030.13;7388347;19;20038;-73
2022/09/09 11:41:01;;;;;;;11.15;2.20;;;;;;;16.59;83.82;98049.41;7389140;19;20115;-73
2022/09/09 11:43:32;;;;;;;7.13;1.40;;;;;;;16.43;82.35;98039.13;7387586;19;20022;-72
2022/09/09 11:46:02;;;;;;;11.07;1.52;;;;;;;16.41;82.40;98033.16;7390989;19;20026;-72
2022/09/09 11:48:38;;;;;;;7.20;1.63;;;;;;;16.51;83.69;98035.41;7388306;19;20014;-71
2022/09/09 11:51:08;;;;;;;12.10;1.65;;;;;;;16.86;84.28;98038.81;7387834;19;20047;-74
2022/09/09 11:53:49;;;;;;;6.85;1.52;;;;;;;17.18;80.63;98033.66;7391314;19;20026;-72
2022/09/09 11:56:26;;;;;;;5.95;1.55;;;;;;;17.50;79.52;98035.47;7384370;19;20019;-72
2022/09/09 11:59:03;;;;;;;6.25;1.60;;;;;;;17.74;81.67;98027.81;7386635;19;20017;-72
2022/09/09 12:01:42;;;;;;;5.13;1.30;;;;;;;17.90;79.18;98029.25;7388720;19;20374;-72
2022/09/09 12:04:14;;;;;;;6.55;1.02;;;;;;;17.91;79.76;98014.84;7389446;19;20525;-73
2022/09/09 12:06:55;;;;;;;3.83;0.73;;;;;;;17.95;78.16;98016.03;7385285;19;20417;-72